Goostrey, United Kingdom
Current Conditions -  °F | °C
As of 6:20 PM on Thursday 27 Nov 2014 (Local Time) from EGCC Reporting Station
Few Clouds Few Clouds  
Wind Chill: 45°   Ceiling: Unl
Heat Index: 45°   Visibility: 4mi
Dew Point: 45°   Wind: 3mph
Humidity: 100%   Direction: NA
Pressure: 29.56"   Gusts: NA
Location:  53.23°N, 2.34°W
Report Text: EGCC 271820Z VRB03KT 7000 FEW046 07/07 Q1001
Loading
Personal Weather Stations






























Interactive Weather Map New forecast layout! Learn more

10-Day Weather Forecast

Advertisements
Track Severe Weather on mobile